KSOP/SOP METAR and TAF weather

Enter ICAO airport designator
Station Type Date Time Source
KSOP METAR 2020/04/03 06:56 UTC NOAA

KSOP 030656Z AUTO 28004KT 10SM CLR 09/00 A2996 RMK AO2 SLP147 T00940000


Station Type Date Time Source
KSOP Decoded METAR 2020/04/03 06:56 UTC NOAA

Pinehurst/Southern Pines, Moore County Airport, NC, United States (KSOP) 35-14N 079-24W
Apr 03, 2020 - 02:56 AM EDT / 2020.04.03 0656 UTC
Wind: from the W (280 degrees) at 5 MPH (4 KT):0
Visibility: 10 mile(s):0
Sky conditions: clear
Temperature: 48.9 F (9.4 C)
Dew Point: 32.0 F (0.0 C)
Relative Humidity: 51%
Pressure (altimeter): 29.96 in. Hg (1014 hPa)
ob: KSOP 030656Z AUTO 28004KT 10SM CLR 09/00 A2996 RMK AO2 SLP147 T00940000
cycle: 7

Station Type Date Time Source
KSOP TAF UTC NOAA

Error!

Example: see airport list